Time;durP1;ratioP1;P1;durP2;ratioP2;P2;SDS_P1;SDS_P2;PMS_P1;PMS_P2;Temp;Humidity;BMP_temperature;BMP_pressure;BME280_temperature;BME280_humidity;BME280_pressure;Samples;Min_cycle;Max_cycle;Signal;HPM_P1;HPM_P2
2022/08/24 00:00:22;;;;;;;6.78;1.98;;;;;;;;;;6218564;23;20008;-91
2022/08/24 00:02:50;;;;;;;4.40;1.58;;;;;;;;;;6220858;22;20027;-88
2022/08/24 00:05:21;;;;;;;3.42;1.55;;;;;;;;;;6258769;22;20330;-88
2022/08/24 00:07:49;;;;;;;4.88;1.90;;;;;;;;;;6273169;22;20020;-88
2022/08/24 00:10:42;;;;;;;3.45;1.60;;;;;;;;;;6272326;22;20335;-88
2022/08/24 00:13:15;;;;;;;5.75;1.65;;;;;;;;;;6223411;22;20046;-88
2022/08/24 00:15:43;;;;;;;2.55;1.48;;;;;;;;;;6223077;22;20028;-88
2022/08/24 00:18:17;;;;;;;5.30;1.75;;;;;;;;;;6260271;22;20061;-88
2022/08/24 00:20:45;;;;;;;6.03;1.60;;;;;;;;;;6233147;22;20016;-88
2022/08/24 00:23:13;;;;;;;5.75;1.80;;;;;;;;;;6285507;22;20052;-88
2022/08/24 00:25:41;;;;;;;3.47;1.55;;;;;;;;;;6258304;22;20039;-88
2022/08/24 00:28:08;;;;;;;4.97;1.70;;;;;;;;;;6258772;22;20019;-88
2022/08/24 00:30:36;;;;;;;4.55;1.50;;;;;;;;;;6257845;22;20345;-88
2022/08/24 00:33:04;;;;;;;5.93;1.70;;;;;;;;;;6258969;22;20396;-91
2022/08/24 00:35:32;;;;;;;6.72;1.75;;;;;;;;;;6199200;22;20102;-92
2022/08/24 00:38:24;;;;;;;4.75;1.75;;;;;;;;;;6229148;22;20327;-91
2022/08/24 00:41:01;;;;;;;3.15;1.70;;;;;;;;;;6223300;22;20074;-91
2022/08/24 00:46:41;;;;;;;7.45;1.70;;;;;;;;;;6258604;22;20012;-88
2022/08/24 00:49:34;;;;;;;2.30;1.30;;;;;;;;;;6222626;22;20055;-88
2022/08/24 00:52:28;;;;;;;5.70;1.65;;;;;;;;;;6247505;22;20458;-88
2022/08/24 00:55:06;;;;;;;4.18;1.60;;;;;;;;;;6223533;22;20024;-92
2022/08/24 00:57:45;;;;;;;5.63;1.92;;;;;;;;;;6283976;22;20066;-91
2022/08/24 01:00:22;;;;;;;9.68;2.20;;;;;;;;;;6222983;22;20070;-91
2022/08/24 01:02:54;;;;;;;8.10;1.73;;;;;;;;;;6235405;22;20011;-89
2022/08/24 01:05:23;;;;;;;6.03;1.70;;;;;;;;;;6232181;22;20058;-88
2022/08/24 01:07:50;;;;;;;7.28;1.90;;;;;;;;;;6222125;22;20030;-88
2022/08/24 01:10:23;;;;;;;4.85;1.88;;;;;;;;;;6284676;22;20493;-88
2022/08/24 01:12:56;;;;;;;4.57;1.73;;;;;;;;;;6259265;22;20011;-88
2022/08/24 01:15:30;;;;;;;5.15;1.92;;;;;;;;;;6223573;22;20349;-88
2022/08/24 01:21:21;;;;;;;4.50;1.50;;;;;;;;;;6248419;22;20043;-88
2022/08/24 01:23:53;;;;;;;4.57;1.95;;;;;;;;;;6258355;22;20018;-88
2022/08/24 01:26:34;;;;;;;3.35;1.60;;;;;;;;;;6285275;22;20094;-88
2022/08/24 01:29:16;;;;;;;3.95;1.90;;;;;;;;;;6234039;22;20019;-88
2022/08/24 01:31:46;;;;;;;9.30;2.00;;;;;;;;;;6223439;22;20027;-88
2022/08/24 01:34:14;;;;;;;4.55;1.73;;;;;;;;;;6224232;22;20018;-88
2022/08/24 01:36:46;;;;;;;2.72;1.52;;;;;;;;;;6250442;22;20027;-88
2022/08/24 01:39:44;;;;;;;3.83;1.60;;;;;;;;;;6265182;22;20032;-88
2022/08/24 01:42:22;;;;;;;4.03;1.80;;;;;;;;;;6260084;22;20069;-92
2022/08/24 01:44:52;;;;;;;4.43;1.73;;;;;;;;;;6236472;22;20012;-88
2022/08/24 01:47:21;;;;;;;4.22;1.63;;;;;;;;;;6286907;22;20015;-88
2022/08/24 01:49:48;;;;;;;4.72;1.85;;;;;;;;;;6199805;22;20542;-88
2022/08/24 01:52:48;;;;;;;5.90;1.75;;;;;;;;;;6235461;22;20018;-92
2022/08/24 01:55:43;;;;;;;4.22;2.00;;;;;;;;;;6260012;22;20020;-88
2022/08/24 01:58:45;;;;;;;3.97;1.50;;;;;;;;;;6266688;22;20018;-88
2022/08/24 02:01:42;;;;;;;6.78;1.73;;;;;;;;;;6231052;22;20034;-92
2022/08/24 02:04:11;;;;;;;5.03;1.70;;;;;;;;;;6263718;22;20019;-92
2022/08/24 02:07:02;;;;;;;4.82;2.10;;;;;;;;;;6225244;22;20022;-91
2022/08/24 02:09:32;;;;;;;6.72;2.35;;;;;;;;;;6261228;22;20065;-91
2022/08/24 02:12:07;;;;;;;3.10;1.70;;;;;;;;;;6237041;22;20023;-91
2022/08/24 02:14:35;;;;;;;4.72;1.92;;;;;;;;;;6224773;22;20019;-88
2022/08/24 02:17:09;;;;;;;4.35;1.90;;;;;;;;;;6224512;22;20031;-88
2022/08/24 02:19:37;;;;;;;6.05;2.40;;;;;;;;;;6224559;22;20065;-88
2022/08/24 02:22:06;;;;;;;4.63;1.75;;;;;;;;;;6235025;22;20086;-88
2022/08/24 02:30:48;;;;;;;4.13;1.90;;;;;;;;;;6275223;22;20443;-92
2022/08/24 02:33:23;;;;;;;4.28;1.92;;;;;;;;;;6260373;22;20095;-88
2022/08/24 02:35:52;;;;;;;7.13;2.20;;;;;;;;;;6222928;22;20392;-88
2022/08/24 02:38:20;;;;;;;5.68;1.98;;;;;;;;;;6259279;22;20600;-89
2022/08/24 02:40:52;;;;;;;3.95;1.77;;;;;;;;;;6249018;22;20035;-88
2022/08/24 02:43:20;;;;;;;5.38;1.98;;;;;;;;;;6224898;22;20027;-88
2022/08/24 02:45:49;;;;;;;5.75;2.30;;;;;;;;;;6233136;22;20024;-88
2022/08/24 02:48:19;;;;;;;5.32;2.17;;;;;;;;;;6224149;22;20031;-88
2022/08/24 02:50:49;;;;;;;5.15;2.10;;;;;;;;;;6234899;22;20421;-88
2022/08/24 02:53:22;;;;;;;4.00;1.98;;;;;;;;;;6260423;22;20043;-88
2022/08/24 02:56:16;;;;;;;5.10;2.00;;;;;;;;;;6285808;22;20110;-88
2022/08/24 02:58:49;;;;;;;5.07;2.10;;;;;;;;;;6249489;22;20024;-88
2022/08/24 03:01:21;;;;;;;4.90;2.30;;;;;;;;;;6235474;22;20020;-88
2022/08/24 03:04:24;;;;;;;5.85;2.00;;;;;;;;;;6266461;22;20445;-88
2022/08/24 03:06:52;;;;;;;5.70;2.15;;;;;;;;;;6224169;22;20099;-88
2022/08/24 03:09:20;;;;;;;5.55;1.88;;;;;;;;;;6198994;22;20023;-88
2022/08/24 03:11:50;;;;;;;6.45;1.88;;;;;;;;;;6284325;22;20480;-88
2022/08/24 03:14:23;;;;;;;6.43;2.28;;;;;;;;;;6200699;22;20020;-92
2022/08/24 03:16:50;;;;;;;5.78;2.10;;;;;;;;;;6234649;22;20434;-92
2022/08/24 03:19:22;;;;;;;5.30;2.30;;;;;;;;;;6260058;22;20095;-91
2022/08/24 03:21:52;;;;;;;5.32;2.20;;;;;;;;;;6224209;22;20026;-92
2022/08/24 03:24:27;;;;;;;6.88;2.33;;;;;;;;;;6224524;22;20016;-88
2022/08/24 03:26:54;;;;;;;4.75;2.13;;;;;;;;;;6223272;22;20696;-88
2022/08/24 03:29:29;;;;;;;4.47;2.00;;;;;;;;;;6235512;22;20890;-88
2022/08/24 03:32:00;;;;;;;9.68;2.78;;;;;;;;;;6225082;22;20028;-88
2022/08/24 03:34:40;;;;;;;5.88;2.10;;;;;;;;;;6224562;22;20031;-92
2022/08/24 03:37:08;;;;;;;7.40;2.05;;;;;;;;;;6199958;22;20123;-91
2022/08/24 03:39:36;;;;;;;4.07;1.98;;;;;;;;;;6223829;22;20069;-91
2022/08/24 03:42:05;;;;;;;4.30;2.28;;;;;;;;;;6199249;22;20039;-92
2022/08/24 03:44:56;;;;;;;3.88;2.00;;;;;;;;;;6224988;22;20092;-92
2022/08/24 03:47:26;;;;;;;4.38;2.20;;;;;;;;;;6234826;22;20085;-91
2022/08/24 03:50:26;;;;;;;5.72;2.42;;;;;;;;;;6286440;22;20755;-91
2022/08/24 03:52:54;;;;;;;4.65;2.15;;;;;;;;;;6259860;22;20028;-91
2022/08/24 03:55:22;;;;;;;4.25;2.10;;;;;;;;;;6222388;22;20074;-88
2022/08/24 03:57:51;;;;;;;7.47;2.50;;;;;;;;;;6233120;22;20022;-88
2022/08/24 04:00:24;;;;;;;4.90;2.08;;;;;;;;;;6258721;22;20023;-88
2022/08/24 04:02:58;;;;;;;6.63;2.17;;;;;;;;;;6234929;22;20011;-91
2022/08/24 04:05:50;;;;;;;5.00;2.00;;;;;;;;;;6285445;22;20018;-88
2022/08/24 04:08:23;;;;;;;5.63;2.40;;;;;;;;;;6258672;22;20055;-88
2022/08/24 04:10:52;;;;;;;8.52;2.70;;;;;;;;;;6258578;22;20020;-88
2022/08/24 04:13:45;;;;;;;7.88;2.83;;;;;;;;;;6259272;22;20349;-91
2022/08/24 04:16:20;;;;;;;4.45;2.20;;;;;;;;;;6223627;22;20023;-91
2022/08/24 04:18:53;;;;;;;6.63;2.60;;;;;;;;;;6235239;22;20016;-92
2022/08/24 04:21:24;;;;;;;8.52;2.42;;;;;;;;;;6285936;22;20505;-92
2022/08/24 04:23:53;;;;;;;7.43;2.33;;;;;;;;;;6284958;22;20023;-88
2022/08/24 04:26:25;;;;;;;5.55;2.38;;;;;;;;;;6258940;22;20044;-88
2022/08/24 04:29:18;;;;;;;6.10;2.55;;;;;;;;;;6257879;22;20015;-89
2022/08/24 04:32:10;;;;;;;4.95;2.40;;;;;;;;;;6258705;22;20093;-88
2022/08/24 04:34:38;;;;;;;4.88;2.40;;;;;;;;;;6249553;22;20450;-91
2022/08/24 04:37:17;;;;;;;5.45;2.30;;;;;;;;;;6260034;22;20430;-93
2022/08/24 04:40:09;;;;;;;7.95;2.38;;;;;;;;;;6243831;22;20015;-91
2022/08/24 04:42:44;;;;;;;5.75;2.67;;;;;;;;;;6224357;22;20031;-89
2022/08/24 04:45:14;;;;;;;8.18;2.60;;;;;;;;;;6261429;22;20015;-90
2022/08/24 04:47:44;;;;;;;4.68;2.70;;;;;;;;;;6198350;22;20034;-91
2022/08/24 04:50:12;;;;;;;5.18;2.55;;;;;;;;;;6259470;22;20026;-91
2022/08/24 04:52:42;;;;;;;5.65;2.92;;;;;;;;;;6265572;22;20373;-89
2022/08/24 04:55:46;;;;;;;5.43;2.50;;;;;;;;;;6258640;22;20658;-92
2022/08/24 04:58:18;;;;;;;7.05;2.70;;;;;;;;;;6235274;22;20022;-92
2022/08/24 05:00:46;;;;;;;8.10;2.97;;;;;;;;;;6273213;22;20020;-92
2022/08/24 05:03:18;;;;;;;5.00;2.80;;;;;;;;;;6234968;22;20023;-91
2022/08/24 05:05:49;;;;;;;7.18;2.85;;;;;;;;;;6234529;22;20019;-92
2022/08/24 05:08:22;;;;;;;9.68;2.92;;;;;;;;;;6236595;22;20043;-92
2022/08/24 05:10:50;;;;;;;7.43;2.85;;;;;;;;;;6225747;22;20449;-91
2022/08/24 05:13:20;;;;;;;5.53;2.80;;;;;;;;;;6262275;22;20026;-92
2022/08/24 05:15:53;;;;;;;8.07;2.88;;;;;;;;;;6251845;22;20050;-90
2022/08/24 05:18:20;;;;;;;9.52;2.92;;;;;;;;;;6261997;22;20016;-91
2022/08/24 05:20:48;;;;;;;7.60;3.03;;;;;;;;;;6289910;22;20023;-92
2022/08/24 05:23:18;;;;;;;4.78;2.85;;;;;;;;;;6262637;22;20019;-88
2022/08/24 05:25:47;;;;;;;7.32;3.03;;;;;;;;;;6224741;22;20031;-87
2022/08/24 05:28:17;;;;;;;7.95;3.28;;;;;;;;;;6260697;22;20090;-88
2022/08/24 05:30:45;;;;;;;10.05;2.90;;;;;;;;;;6249276;22;20030;-87
2022/08/24 05:33:22;;;;;;;6.13;2.88;;;;;;;;;;6287122;22;20093;-92
2022/08/24 05:35:50;;;;;;;6.47;2.90;;;;;;;;;;6261241;22;20510;-93
2022/08/24 05:38:18;;;;;;;6.28;3.13;;;;;;;;;;6302328;22;20015;-92
2022/08/24 05:40:46;;;;;;;9.52;2.75;;;;;;;;;;6279582;22;20022;-93
2022/08/24 05:43:14;;;;;;;8.60;3.10;;;;;;;;;;6237528;22;20119;-91
2022/08/24 05:45:44;;;;;;;7.88;3.08;;;;;;;;;;6263174;22;20454;-91
2022/08/24 05:49:03;;;;;;;6.28;3.05;;;;;;;;;;6269188;22;20099;-89
2022/08/24 05:51:35;;;;;;;9.98;3.38;;;;;;;;;;6271103;22;20022;-91
2022/08/24 05:54:07;;;;;;;6.60;3.03;;;;;;;;;;6262820;22;20016;-88
2022/08/24 05:57:03;;;;;;;6.53;2.78;;;;;;;;;;6260229;22;20015;-88
2022/08/24 05:59:51;;;;;;;10.43;3.00;;;;;;;;;;6260300;22;20019;-89
2022/08/24 06:02:19;;;;;;;7.38;3.13;;;;;;;;;;6224146;22;20762;-90
2022/08/24 06:04:52;;;;;;;7.07;3.15;;;;;;;;;;6225380;22;20159;-88
2022/08/24 06:07:21;;;;;;;5.50;2.63;;;;;;;;;;6260627;22;20023;-88
2022/08/24 06:09:54;;;;;;;6.75;3.00;;;;;;;;;;6259394;22;20026;-88
2022/08/24 06:12:28;;;;;;;7.03;3.30;;;;;;;;;;6259330;22;20016;-89
2022/08/24 06:15:07;;;;;;;10.07;3.33;;;;;;;;;;6284817;22;20012;-88
2022/08/24 06:17:35;;;;;;;7.07;2.90;;;;;;;;;;6247460;22;20046;-89
2022/08/24 06:20:03;;;;;;;6.43;3.17;;;;;;;;;;6250779;22;20028;-89
2022/08/24 06:22:30;;;;;;;7.25;2.85;;;;;;;;;;6252706;22;20102;-93
2022/08/24 06:27:46;;;;;;;8.50;3.83;;;;;;;;;;6251069;22;20047;-93
2022/08/24 06:30:20;;;;;;;4.75;2.55;;;;;;;;;;6253045;22;20020;-94
2022/08/24 06:33:03;;;;;;;12.32;3.03;;;;;;;;;;6246454;22;20453;-93
2022/08/24 06:35:41;;;;;;;5.43;3.10;;;;;;;;;;6236394;22;20473;-88
2022/08/24 06:38:14;;;;;;;5.85;2.78;;;;;;;;;;6223753;22;20023;-88
2022/08/24 06:40:50;;;;;;;8.07;3.35;;;;;;;;;;6222844;22;20035;-89
2022/08/24 06:43:21;;;;;;;8.52;2.78;;;;;;;;;;6222829;22;20026;-88
2022/08/24 06:46:14;;;;;;;5.05;2.33;;;;;;;;;;6262798;22;20022;-87
2022/08/24 06:48:47;;;;;;;5.75;2.78;;;;;;;;;;6257522;22;20365;-88
2022/08/24 06:51:17;;;;;;;6.55;2.90;;;;;;;;;;6232202;22;20023;-88
2022/08/24 06:53:47;;;;;;;4.78;2.47;;;;;;;;;;6259586;22;20030;-87
2022/08/24 06:56:21;;;;;;;8.70;2.40;;;;;;;;;;6222639;22;20020;-88
2022/08/24 06:58:48;;;;;;;7.95;2.38;;;;;;;;;;6223220;22;20019;-87
2022/08/24 07:01:21;;;;;;;5.88;2.60;;;;;;;;;;6221809;22;20058;-88
2022/08/24 07:03:55;;;;;;;5.13;2.40;;;;;;;;;;6239038;22;20023;-90
2022/08/24 07:06:40;;;;;;;7.22;2.88;;;;;;;;;;6274603;22;20019;-90
2022/08/24 07:09:08;;;;;;;9.00;2.63;;;;;;;;;;6235255;22;20026;-91
2022/08/24 07:11:36;;;;;;;7.35;2.50;;;;;;;;;;6249777;22;20425;-91
2022/08/24 07:14:07;;;;;;;6.90;2.80;;;;;;;;;;6235229;22;20441;-90
2022/08/24 07:16:36;;;;;;;5.97;2.60;;;;;;;;;;6199605;22;20020;-91
2022/08/24 07:19:05;;;;;;;6.57;2.50;;;;;;;;;;6224335;22;20135;-91
2022/08/24 07:21:33;;;;;;;6.90;2.70;;;;;;;;;;6224151;22;20095;-91
2022/08/24 07:24:02;;;;;;;6.63;2.28;;;;;;;;;;6224660;22;20430;-91
2022/08/24 07:26:32;;;;;;;9.75;2.50;;;;;;;;;;6200073;22;20020;-91
2022/08/24 07:29:04;;;;;;;6.90;2.50;;;;;;;;;;6259696;22;20071;-91
2022/08/24 07:31:40;;;;;;;6.25;2.40;;;;;;;;;;6223461;22;20028;-91
2022/08/24 07:34:13;;;;;;;6.50;2.33;;;;;;;;;;6259520;22;20027;-87
2022/08/24 07:36:47;;;;;;;7.18;2.85;;;;;;;;;;6199271;22;20027;-88
2022/08/24 07:39:14;;;;;;;4.75;2.30;;;;;;;;;;6258276;22;20082;-88
2022/08/24 07:41:44;;;;;;;5.97;2.53;;;;;;;;;;6258033;22;20016;-88
2022/08/24 07:44:37;;;;;;;10.00;2.70;;;;;;;;;;6249437;22;20075;-92
2022/08/24 07:47:11;;;;;;;7.30;2.40;;;;;;;;;;6248832;22;20074;-91
2022/08/24 07:50:24;;;;;;;6.65;2.50;;;;;;;;;;6285764;22;20019;-91
2022/08/24 07:52:56;;;;;;;6.15;2.30;;;;;;;;;;6225120;22;20106;-89
2022/08/24 07:55:24;;;;;;;6.45;2.20;;;;;;;;;;6234507;22;20426;-91
2022/08/24 07:57:52;;;;;;;5.60;2.42;;;;;;;;;;6233561;22;20019;-92
2022/08/24 08:00:21;;;;;;;7.50;2.63;;;;;;;;;;6260042;22;20031;-93
2022/08/24 08:03:12;;;;;;;11.90;2.78;;;;;;;;;;6224246;22;20091;-91
2022/08/24 08:05:41;;;;;;;5.38;2.25;;;;;;;;;;6199522;22;20107;-90
2022/08/24 08:08:10;;;;;;;8.68;2.97;;;;;;;;;;6225363;22;20353;-93
2022/08/24 08:11:03;;;;;;;6.00;2.50;;;;;;;;;;6234885;22;20015;-94
2022/08/24 08:13:33;;;;;;;5.30;2.78;;;;;;;;;;6264042;22;20025;-89
2022/08/24 08:16:07;;;;;;;6.57;2.47;;;;;;;;;;6222602;22;20027;-89
2022/08/24 08:18:44;;;;;;;7.07;2.40;;;;;;;;;;6224643;22;20019;-89
2022/08/24 08:24:19;;;;;;;7.82;2.70;;;;;;;;;;6236452;22;20049;-93
2022/08/24 08:27:19;;;;;;;7.78;2.55;;;;;;;;;;6241753;22;20038;-94
2022/08/24 08:30:12;;;;;;;6.78;2.47;;;;;;;;;;6287818;22;20054;-94
2022/08/24 08:32:46;;;;;;;5.25;2.35;;;;;;;;;;6202398;22;20581;-90
2022/08/24 08:35:18;;;;;;;5.28;2.70;;;;;;;;;;6230175;23;20024;-94
2022/08/24 08:37:48;;;;;;;7.47;2.65;;;;;;;;;;6196351;22;20066;-94
2022/08/24 08:40:54;;;;;;;4.60;2.30;;;;;;;;;;6201525;22;20394;-93
2022/08/24 08:44:00;;;;;;;6.00;2.72;;;;;;;;;;6224661;22;20114;-89
2022/08/24 08:47:10;;;;;;;6.63;2.20;;;;;;;;;;6248707;22;20074;-88
2022/08/24 08:50:11;;;;;;;8.02;2.33;;;;;;;;;;6222272;22;20054;-89
2022/08/24 08:53:08;;;;;;;4.63;2.20;;;;;;;;;;6233497;22;20441;-96
2022/08/24 08:56:36;;;;;;;5.97;2.40;;;;;;;;;;6220894;22;20024;-88
2022/08/24 08:59:39;;;;;;;4.75;2.30;;;;;;;;;;6221765;22;20089;-88
2022/08/24 09:02:29;;;;;;;7.22;2.13;;;;;;;;;;6233559;22;20016;-88
2022/08/24 09:05:52;;;;;;;;;;;;;;;;;;;;;
2022/08/24 09:10:12;;;;;;;6.40;2.35;;;;;;;;;;6190407;23;20032;-91
2022/08/24 09:14:34;;;;;;;;;;;;;;;;;;;;;
2022/08/24 09:19:01;;;;;;;9.88;2.50;;;;;;;;;;6091367;23;20110;-88
2022/08/24 09:22:26;;;;;;;5.47;2.08;;;;;;;;;;6031205;23;20126;-90
2022/08/24 09:33:35;;;;;;;4.57;2.08;;;;;;;;;;6004188;23;20028;-94
2022/08/24 09:36:44;;;;;;;5.18;2.30;;;;;;;;;;6023012;23;20019;-93
2022/08/24 09:49:52;;;;;;;7.65;2.00;;;;;;;;;;5991800;23;20548;-89
2022/08/24 09:53:23;;;;;;;;;;;;;;;;;;;;;
2022/08/24 09:57:20;;;;;;;6.47;2.13;;;;;;;;;;6042467;23;20109;-88
2022/08/24 10:00:46;;;;;;;3.60;1.90;;;;;;;;;;6074672;23;20174;-88
2022/08/24 10:03:57;;;;;;;;;;;;;;;;;;6101449;23;20017;-94
2022/08/24 10:07:09;;;;;;;5.75;2.05;;;;;;;;;;6076855;23;20208;-94
2022/08/24 10:09:54;;;;;;;5.30;2.15;;;;;;;;;;5981452;24;20391;-94
2022/08/24 10:12:58;;;;;;;3.92;1.85;;;;;;;;;;5935660;24;20035;-93
2022/08/24 10:16:08;;;;;;;5.53;2.05;;;;;;;;;;6086480;23;20428;-93
2022/08/24 10:18:42;;;;;;;4.78;1.98;;;;;;;;;;6009532;23;20073;-94
2022/08/24 10:21:30;;;;;;;5.18;2.17;;;;;;;;;;6009067;23;20084;-93
2022/08/24 10:24:19;;;;;;;5.68;2.00;;;;;;;;;;5984695;23;20031;-88
2022/08/24 10:27:35;;;;;;;4.13;1.92;;;;;;;;;;6006426;23;20031;-88
2022/08/24 10:30:55;;;;;;;7.97;2.40;;;;;;;;;;6006623;23;20099;-88
2022/08/24 10:34:01;;;;;;;5.40;2.00;;;;;;;;;;5984341;23;20061;-93
2022/08/24 10:36:53;;;;;;;4.03;1.80;;;;;;;;;;5980416;23;20039;-94
2022/08/24 10:49:31;;;;;;;4.45;1.80;;;;;;;;;;5932944;24;20121;-93
2022/08/24 10:53:02;;;;;;;4.13;1.60;;;;;;;;;;5902187;24;20025;-88
2022/08/24 11:09:50;;;;;;;3.70;1.63;;;;;;;;;;6047344;23;20354;-94
2022/08/24 11:13:59;;;;;;;3.45;1.73;;;;;;;;;;6009087;23;20130;-88
2022/08/24 11:17:41;;;;;;;3.80;1.50;;;;;;;;;;5942452;23;20023;-88
2022/08/24 11:20:59;;;;;;;4.70;1.58;;;;;;;;;;5990314;23;20351;-88
2022/08/24 11:24:15;;;;;;;4.20;1.65;;;;;;;;;;5881623;24;20143;-88
2022/08/24 11:32:48;;;;;;;3.88;1.60;;;;;;;;;;5866076;24;20017;-88
2022/08/24 11:35:35;;;;;;;4.55;1.60;;;;;;;;;;5845047;24;20030;-87
2022/08/24 11:39:08;;;;;;;4.75;1.50;;;;;;;;;;5867777;24;20022;-88
2022/08/24 11:42:52;;;;;;;4.10;1.80;;;;;;;;;;5820934;24;20046;-90
2022/08/24 11:51:11;;;;;;;4.00;1.63;;;;;;;;;;5787426;24;20502;-88
2022/08/24 11:59:25;;;;;;;5.88;1.83;;;;;;;;;;5790362;24;20027;-93
2022/08/24 12:08:01;;;;;;;6.22;1.80;;;;;;;;;;5869316;24;20353;-88
2022/08/24 12:12:19;;;;;;;;;;;;;;;;;;;;;
2022/08/24 12:20:31;;;;;;;;;;;;;;;;;;;;;
2022/08/24 12:29:35;;;;;;;3.40;1.60;;;;;;;;;;6076068;23;20010;-87
2022/08/24 12:32:52;;;;;;;3.15;1.40;;;;;;;;;;6095858;23;20029;-93
2022/08/24 12:35:58;;;;;;;3.92;1.50;;;;;;;;;;6165523;23;20075;-87
2022/08/24 12:39:07;;;;;;;4.65;1.60;;;;;;;;;;6100957;23;20026;-87
2022/08/24 12:42:22;;;;;;;5.97;1.80;;;;;;;;;;6106508;23;20040;-88
2022/08/24 12:50:51;;;;;;;5.75;1.80;;;;;;;;;;6275664;22;19919;-84
2022/08/24 12:55:17;;;;;;;6.45;2.22;;;;;;;;;;6268174;22;20027;-83
2022/08/24 13:00:06;;;;;;;5.97;1.70;;;;;;;;;;6202922;23;20028;-84
2022/08/24 13:03:03;;;;;;;4.40;1.90;;;;;;;;;;6211526;23;20063;-84
2022/08/24 13:05:45;;;;;;;4.75;1.50;;;;;;;;;;6214112;23;20163;-83
2022/08/24 13:08:34;;;;;;;4.43;1.67;;;;;;;;;;6213667;23;20028;-83
2022/08/24 13:11:28;;;;;;;4.03;1.55;;;;;;;;;;6215614;23;20025;-82
2022/08/24 13:13:56;;;;;;;3.58;1.48;;;;;;;;;;6215678;23;20068;-82
2022/08/24 13:16:55;;;;;;;3.50;1.70;;;;;;;;;;6211896;23;20389;-82
2022/08/24 13:19:22;;;;;;;3.47;1.67;;;;;;;;;;6202745;23;20024;-82
2022/08/24 13:22:08;;;;;;;3.10;1.60;;;;;;;;;;6209695;23;20032;-82
2022/08/24 13:24:43;;;;;;;3.53;1.30;;;;;;;;;;6209606;23;20024;-82
2022/08/24 13:27:10;;;;;;;3.85;1.52;;;;;;;;;;6211742;23;20021;-83
2022/08/24 13:29:59;;;;;;;2.70;1.42;;;;;;;;;;6240155;22;20123;-83
2022/08/24 13:32:42;;;;;;;4.10;1.50;;;;;;;;;;6253284;22;20411;-83
2022/08/24 13:35:40;;;;;;;3.63;1.60;;;;;;;;;;6283801;22;20594;-84
2022/08/24 13:38:33;;;;;;;3.15;1.40;;;;;;;;;;6256503;22;20385;-82
2022/08/24 13:41:29;;;;;;;5.22;1.50;;;;;;;;;;6219781;22;20078;-83
2022/08/24 13:44:51;;;;;;;2.97;1.50;;;;;;;;;;6215537;23;20021;-83
2022/08/24 13:47:22;;;;;;;6.38;1.58;;;;;;;;;;6213532;23;20134;-83
2022/08/24 13:50:36;;;;;;;3.80;1.55;;;;;;;;;;6205256;23;20047;-83
2022/08/24 14:05:22;;;;;;;4.20;1.50;;;;;;;;;;6216600;23;20440;-83
2022/08/24 14:08:25;;;;;;;4.55;1.58;;;;;;;;;;6150726;23;20128;-83
2022/08/24 14:14:44;;;;;;;4.07;1.70;;;;;;;;;;6145298;23;20029;-83
2022/08/24 14:17:52;;;;;;;4.78;1.58;;;;;;;;;;6115729;23;20036;-83
2022/08/24 14:20:42;;;;;;;7.65;1.83;;;;;;;;;;6143567;23;20025;-83
2022/08/24 14:23:16;;;;;;;3.65;1.50;;;;;;;;;;6154531;23;20047;-83
2022/08/24 14:25:47;;;;;;;4.35;1.50;;;;;;;;;;6152572;23;20033;-83
2022/08/24 14:28:38;;;;;;;4.05;1.40;;;;;;;;;;6162709;23;20026;-83
2022/08/24 14:31:26;;;;;;;3.90;1.80;;;;;;;;;;6162367;23;20029;-83
2022/08/24 14:34:07;;;;;;;3.35;1.70;;;;;;;;;;6160888;23;20073;-82
2022/08/24 14:37:04;;;;;;;;;;;;;;;;;;6158521;23;20044;-81
2022/08/24 14:39:53;;;;;;;2.72;1.38;;;;;;;;;;6151765;23;19920;-83
2022/08/24 14:42:36;;;;;;;3.42;1.90;;;;;;;;;;6128139;23;20089;-83
2022/08/24 14:45:25;;;;;;;5.60;1.70;;;;;;;;;;6187859;23;20104;-80
2022/08/24 14:48:23;;;;;;;3.85;1.70;;;;;;;;;;6229740;23;20043;-80
2022/08/24 14:51:04;;;;;;;3.05;1.45;;;;;;;;;;6246562;23;20110;-84
2022/08/24 14:53:56;;;;;;;;;;;;;;;;;;6248839;23;20106;-82
2022/08/24 14:56:53;;;;;;;3.60;1.50;;;;;;;;;;6250891;23;19923;-82
2022/08/24 15:00:01;;;;;;;6.75;1.60;;;;;;;;;;6246298;23;20333;-82
2022/08/24 15:02:28;;;;;;;4.28;1.45;;;;;;;;;;6245972;23;20035;-81
2022/08/24 15:05:20;;;;;;;6.90;1.77;;;;;;;;;;6210602;23;20024;-81
2022/08/24 15:08:01;;;;;;;4.15;1.60;;;;;;;;;;6216435;23;20024;-80
2022/08/24 15:10:37;;;;;;;3.22;1.42;;;;;;;;;;6224923;23;20027;-81
2022/08/24 15:13:27;;;;;;;7.45;1.63;;;;;;;;;;6246861;23;20015;-82
2022/08/24 15:16:02;;;;;;;2.80;1.38;;;;;;;;;;6246669;23;20020;-82
2022/08/24 15:19:07;;;;;;;5.32;1.73;;;;;;;;;;6227453;23;20235;-82
2022/08/24 15:22:02;;;;;;;;;;;;;;;;;;6213521;23;20195;-83
2022/08/24 15:24:41;;;;;;;2.70;1.30;;;;;;;;;;6213944;23;19920;-84
2022/08/24 15:27:24;;;;;;;6.97;2.10;;;;;;;;;;6223455;23;20027;-83
2022/08/24 15:29:56;;;;;;;4.57;1.80;;;;;;;;;;6249787;23;20295;-83
2022/08/24 15:32:53;;;;;;;4.15;1.80;;;;;;;;;;6247685;23;20016;-83
2022/08/24 15:35:33;;;;;;;4.95;1.70;;;;;;;;;;6247508;23;20026;-83
2022/08/24 15:38:22;;;;;;;4.18;1.75;;;;;;;;;;6186244;23;20035;-83
2022/08/24 15:50:37;;;;;;;4.00;1.60;;;;;;;;;;6248696;23;20015;-84
2022/08/24 15:58:53;;;;;;;3.88;1.77;;;;;;;;;;6161068;23;20024;-84
2022/08/24 16:04:42;;;;;;;5.65;1.83;;;;;;;;;;6218249;23;20075;-84
2022/08/24 16:08:58;;;;;;;5.57;1.57;;;;;;;;;;6169195;23;20028;-84
2022/08/24 16:12:09;;;;;;;4.63;1.60;;;;;;;;;;6146802;23;20271;-85
2022/08/24 16:15:20;;;;;;;3.23;1.70;;;;;;;;;;6154140;23;20572;-83
2022/08/24 16:18:19;;;;;;;6.95;1.63;;;;;;;;;;6134347;23;20261;-83
2022/08/24 16:20:49;;;;;;;4.43;2.13;;;;;;;;;;6177795;23;20396;-84
2022/08/24 16:41:26;;;;;;;7.82;1.90;;;;;;;;;;6206803;23;20021;-82
2022/08/24 16:43:54;;;;;;;4.15;1.70;;;;;;;;;;6207499;23;20369;-82
2022/08/24 16:46:34;;;;;;;4.55;1.45;;;;;;;;;;6198088;23;20039;-82
2022/08/24 16:49:07;;;;;;;4.30;1.63;;;;;;;;;;6181974;23;20032;-81
2022/08/24 16:51:59;;;;;;;3.75;1.50;;;;;;;;;;6180972;23;20027;-82
2022/08/24 16:54:33;;;;;;;4.37;1.60;;;;;;;;;;6157640;23;20128;-82
2022/08/24 17:06:02;;;;;;;4.97;1.45;;;;;;;;;;6183749;23;20025;-83
2022/08/24 17:08:50;;;;;;;4.95;1.85;;;;;;;;;;6155308;23;20051;-82
2022/08/24 17:16:38;;;;;;;4.53;1.73;;;;;;;;;;6067546;23;20086;-87
2022/08/24 17:20:36;;;;;;;3.45;1.60;;;;;;;;;;5975241;24;20044;-85
2022/08/24 17:24:08;;;;;;;3.10;1.58;;;;;;;;;;5974404;23;20527;-86
2022/08/24 18:04:54;;;;;;;6.93;2.00;;;;;;;;;;6133097;23;20122;-84
2022/08/24 18:07:27;;;;;;;4.80;1.85;;;;;;;;;;6125143;23;20073;-84
2022/08/24 18:10:28;;;;;;;4.82;2.20;;;;;;;;;;6126440;23;20044;-82
2022/08/24 18:12:58;;;;;;;4.25;1.92;;;;;;;;;;6119285;23;20056;-82
2022/08/24 18:15:30;;;;;;;5.57;2.58;;;;;;;;;;6186791;23;20025;-85
2022/08/24 18:18:07;;;;;;;4.93;2.00;;;;;;;;;;6148988;23;20397;-83
2022/08/24 18:20:39;;;;;;;7.68;2.40;;;;;;;;;;6125419;23;20059;-84
2022/08/24 18:23:07;;;;;;;6.03;2.88;;;;;;;;;;6183409;23;20083;-84
2022/08/24 18:25:50;;;;;;;5.30;2.20;;;;;;;;;;6172525;23;20041;-85
2022/08/24 18:28:37;;;;;;;6.53;2.20;;;;;;;;;;6184682;23;20025;-82
2022/08/24 18:31:09;;;;;;;7.53;2.50;;;;;;;;;;6180680;23;20029;-82
2022/08/24 18:34:02;;;;;;;5.13;1.80;;;;;;;;;;6188462;23;20025;-82
2022/08/24 18:36:30;;;;;;;4.50;2.10;;;;;;;;;;6188792;23;20025;-82
2022/08/24 18:38:59;;;;;;;6.05;1.83;;;;;;;;;;6189216;23;20448;-82
2022/08/24 18:41:42;;;;;;;5.65;1.83;;;;;;;;;;6151413;23;20033;-82
2022/08/24 18:44:17;;;;;;;6.25;2.28;;;;;;;;;;6176955;23;20033;-82
2022/08/24 18:46:44;;;;;;;7.57;2.05;;;;;;;;;;6188194;23;20068;-82
2022/08/24 18:49:13;;;;;;;7.13;1.70;;;;;;;;;;6165159;23;20457;-82
2022/08/24 18:51:42;;;;;;;6.38;2.20;;;;;;;;;;6210016;23;20033;-82
2022/08/24 18:54:18;;;;;;;4.80;1.83;;;;;;;;;;6222929;23;20020;-82
2022/08/24 18:57:10;;;;;;;4.25;1.80;;;;;;;;;;6218201;23;20088;-83
2022/08/24 18:59:45;;;;;;;5.55;1.50;;;;;;;;;;6220469;23;20012;-82
2022/08/24 19:02:31;;;;;;;4.13;1.98;;;;;;;;;;6224225;23;20334;-82
2022/08/24 19:05:06;;;;;;;6.35;1.80;;;;;;;;;;6227916;23;20067;-82
2022/08/24 19:07:38;;;;;;;6.28;1.92;;;;;;;;;;6190576;23;20024;-82
2022/08/24 19:10:08;;;;;;;5.35;2.08;;;;;;;;;;6230058;23;20020;-82
2022/08/24 19:12:40;;;;;;;7.13;1.60;;;;;;;;;;6226334;23;20043;-82
2022/08/24 19:15:13;;;;;;;7.28;2.13;;;;;;;;;;6168050;23;20040;-83
2022/08/24 19:18:01;;;;;;;5.82;1.90;;;;;;;;;;6225659;23;20016;-83
2022/08/24 19:20:28;;;;;;;2.97;1.77;;;;;;;;;;6199344;23;20073;-83
2022/08/24 19:23:03;;;;;;;5.15;1.73;;;;;;;;;;6212870;23;20039;-83
2022/08/24 19:25:31;;;;;;;10.63;2.00;;;;;;;;;;6207975;23;20024;-83
2022/08/24 19:28:01;;;;;;;6.00;1.95;;;;;;;;;;6215579;23;20020;-83
2022/08/24 19:30:28;;;;;;;5.35;1.65;;;;;;;;;;6179471;23;20033;-83
2022/08/24 19:33:23;;;;;;;10.10;2.72;;;;;;;;;;6152026;23;20032;-84
2022/08/24 19:35:52;;;;;;;5.18;1.90;;;;;;;;;;6155533;23;20029;-83
2022/08/24 19:38:20;;;;;;;5.28;1.98;;;;;;;;;;6216253;23;20020;-83
2022/08/24 19:40:55;;;;;;;5.53;2.00;;;;;;;;;;6216516;23;20441;-83
2022/08/24 19:43:24;;;;;;;6.30;2.20;;;;;;;;;;6189510;23;20016;-82
2022/08/24 19:46:01;;;;;;;4.65;2.10;;;;;;;;;;6215798;23;20103;-83
2022/08/24 19:48:32;;;;;;;5.97;1.98;;;;;;;;;;6214779;23;20019;-82
2022/08/24 19:51:06;;;;;;;4.28;1.85;;;;;;;;;;6216385;23;20047;-82
2022/08/24 19:53:36;;;;;;;4.57;1.85;;;;;;;;;;6208000;23;20024;-83